Watson Lake Airport
CYQH : rendu visible

Aérodrome :











RETROUVEZ-NOUS SUR...

 
LOGIN :

S'inscrire | Disclaimer

   EN    FR    IT 

 









Légende :    VFR   VFR Marginal   IFR   IFR Intensif   IFR Très Intensif
Visi : 
Plafond : 
>= 8 km
>= 3000ft
5 à 8 km
1000 à 3000 ft
1500m à 5 km
500 à 1000 ft
800 à 1500m
200 à 500 ft
< 800m
< 200 ft
Symboles :   Orages  Brouillard  Fortes neiges  Fortes précipitations  Vent > 20 kt






- Altitude de l'aérodrome : 2255 ft
- Code IATA : YQH


CYQH - Watson Lake

DERNIER METAR :
  • 211500Z 00000KT 15SM OVC170 M09/M11 A2925 RMK AC8 SLP947

METARs EXPIRÉS :
  • 211400Z 03003KT 360V070 15SM OVC170 M09/M12 A2925 RMK AC8 SLP947
  • 211300Z 12003KT 15SM OVC140 M11/M14 A2925 RMK AC8 SLP948

TAF TAF CYQH
Valide du 21 à 12h jusqu'au 22 à 00h UTC


211138Z 2112/2124 14006KT P6SM SCT070 BKN150
TEMPO 2112/2124 4SM -SN SCT030 BKN070 RMK NXT FCST BY 211800Z



MET'MAP, la Météo Aéronautique d'un coup d'oeil ! - Copyright ORBIFLY Décembre 2007 - Disclaimer

ORBIFLY MET'MAP TEAM :

Programmation & Développement : Alexandra Zaïnal
Sur une idée originale de : Baudouin d'Aumeries
Assistance à la programmation : Marc-Olivier Méhu
Soutien technique & logistique : Manuel Goepfert

Contact : metmap@orbifly.com




SOURCES & CREDITS :

   NOAA       Earth
Advisory